Time;durP1;ratioP1;P1;durP2;ratioP2;P2;SDS_P1;SDS_P2;PMS_P1;PMS_P2;Temp;Humidity;BMP_temperature;BMP_pressure;BME280_temperature;BME280_humidity;BME280_pressure;Samples;Min_cycle;Max_cycle;Signal;HPM_P1;HPM_P2
2022/07/23 00:00:09;;;;;;;6.07;3.58;;;;;;;19.60;61.23;101775.25;6242430;23;20009;-65
2022/07/23 00:02:34;;;;;;;5.07;3.38;;;;;;;19.51;61.55;101770.53;6243482;23;20008;-65
2022/07/23 00:05:00;;;;;;;5.28;3.30;;;;;;;19.47;61.21;101780.69;6243662;23;20306;-65
2022/07/23 00:07:25;;;;;;;6.20;3.58;;;;;;;19.50;61.20;101774.47;6244038;23;20073;-65
2022/07/23 00:09:50;;;;;;;3.95;3.40;;;;;;;19.49;60.97;101784.03;6242120;23;20004;-65
2022/07/23 00:12:16;;;;;;;5.78;3.45;;;;;;;19.41;61.39;101779.03;6244027;23;20068;-65
2022/07/23 00:14:41;;;;;;;6.00;3.55;;;;;;;19.34;61.58;101777.38;6243460;23;20004;-65
2022/07/23 00:17:06;;;;;;;5.55;3.63;;;;;;;19.36;61.78;101783.56;6243898;23;20008;-65
2022/07/23 00:19:32;;;;;;;4.22;3.17;;;;;;;19.34;61.64;101779.34;6244810;23;20011;-65
2022/07/23 00:21:57;;;;;;;4.88;3.30;;;;;;;19.32;61.73;101773.16;6243673;23;20054;-65
2022/07/23 00:24:22;;;;;;;6.63;3.30;;;;;;;19.30;61.84;101773.47;6243462;23;20004;-65
2022/07/23 00:26:47;;;;;;;5.82;3.70;;;;;;;19.28;61.64;101770.09;6245029;23;20090;-65
2022/07/23 00:29:13;;;;;;;8.45;3.53;;;;;;;19.22;61.97;101768.44;6243221;23;20000;-65
2022/07/23 00:31:38;;;;;;;5.80;3.22;;;;;;;19.25;61.79;101773.47;6242646;23;20004;-65
2022/07/23 00:34:03;;;;;;;6.03;3.50;;;;;;;19.19;61.85;101771.84;6244692;23;20042;-65
2022/07/23 00:36:31;;;;;;;4.93;3.53;;;;;;;19.15;61.88;101773.53;6243518;23;20031;-65
2022/07/23 00:38:56;;;;;;;4.22;3.75;;;;;;;19.11;62.13;101770.47;6243574;23;20004;-65
2022/07/23 00:41:21;;;;;;;5.18;3.70;;;;;;;19.08;62.29;101767.38;6244532;23;20095;-65
2022/07/23 00:43:46;;;;;;;4.13;3.60;;;;;;;19.09;62.09;101766.25;6243149;23;20019;-65
2022/07/23 00:46:12;;;;;;;6.00;3.65;;;;;;;19.06;62.07;101756.41;6244786;23;20559;-65
2022/07/23 00:48:37;;;;;;;4.30;3.58;;;;;;;19.00;62.39;101766.00;6243456;23;20011;-65
2022/07/23 00:51:02;;;;;;;5.53;3.45;;;;;;;18.96;62.47;101764.88;6244539;23;20083;-65
2022/07/23 00:53:28;;;;;;;6.25;3.90;;;;;;;18.87;62.53;101766.63;6244117;23;20412;-65
2022/07/23 00:55:54;;;;;;;4.97;3.75;;;;;;;18.83;62.70;101763.53;6246091;23;20714;-65
2022/07/23 00:58:19;;;;;;;8.32;4.15;;;;;;;18.83;62.67;101763.53;6245768;23;20384;-65
2022/07/23 01:00:45;;;;;;;5.05;3.47;;;;;;;18.79;62.50;101751.19;6246343;23;20079;-65
2022/07/23 01:03:10;;;;;;;6.30;3.90;;;;;;;18.79;62.58;101768.06;6245608;23;20012;-66
2022/07/23 01:05:36;;;;;;;5.50;3.80;;;;;;;18.72;62.91;101764.69;6247302;23;20084;-65
2022/07/23 01:08:01;;;;;;;5.50;3.88;;;;;;;18.73;63.12;101762.72;6246620;23;20430;-65
2022/07/23 01:10:32;;;;;;;6.18;4.47;;;;;;;18.68;62.98;101759.91;6245400;23;20371;-65
2022/07/23 01:13:03;;;;;;;5.32;4.25;;;;;;;18.73;62.72;101759.91;6245736;23;20016;-65
2022/07/23 01:15:29;;;;;;;5.80;3.80;;;;;;;18.69;62.77;101764.38;6246357;23;20301;-65
2022/07/23 01:17:55;;;;;;;4.40;3.63;;;;;;;18.65;62.97;101759.34;6245069;23;20107;-65
2022/07/23 01:20:20;;;;;;;5.60;3.70;;;;;;;18.65;63.00;101756.53;6245494;23;20024;-73
2022/07/23 01:22:46;;;;;;;7.93;4.13;;;;;;;18.62;63.06;101751.47;6245981;23;20008;-65
2022/07/23 01:25:11;;;;;;;8.60;4.50;;;;;;;18.58;63.13;101752.31;6245452;23;20008;-65
2022/07/23 01:27:36;;;;;;;6.00;3.83;;;;;;;18.58;63.00;101757.94;6246370;23;20050;-65
2022/07/23 01:30:03;;;;;;;4.93;3.85;;;;;;;18.48;62.80;101755.19;6245226;23;20020;-65
2022/07/23 01:32:29;;;;;;;5.20;4.22;;;;;;;18.45;62.83;101758.56;6244577;23;20011;-65
2022/07/23 01:34:54;;;;;;;5.03;3.70;;;;;;;18.51;63.10;101758.25;6245846;23;20004;-65
2022/07/23 01:37:19;;;;;;;5.07;3.95;;;;;;;18.50;63.19;101755.72;6246759;23;20008;-65
2022/07/23 01:39:45;;;;;;;5.38;4.20;;;;;;;18.46;63.28;101746.16;6244828;23;20075;-66
2022/07/23 01:42:10;;;;;;;4.93;4.15;;;;;;;18.47;63.20;101747.84;6246030;23;20075;-65
2022/07/23 01:44:35;;;;;;;6.35;4.00;;;;;;;18.38;63.59;101750.41;6246037;23;20008;-65
2022/07/23 01:47:00;;;;;;;4.57;3.80;;;;;;;18.30;63.55;101751.81;6245117;23;20027;-65
2022/07/23 01:49:26;;;;;;;7.28;4.20;;;;;;;18.27;63.43;101754.34;6245486;23;20353;-65
2022/07/23 01:52:00;;;;;;;5.05;4.10;;;;;;;18.28;63.38;101745.66;6245216;23;20004;-65
2022/07/23 01:54:31;;;;;;;6.88;4.13;;;;;;;18.27;63.47;101749.56;6245977;23;20050;-65
2022/07/23 01:56:56;;;;;;;9.13;4.43;;;;;;;18.25;63.39;101742.56;6244363;23;20099;-66
2022/07/23 01:59:22;;;;;;;5.45;4.30;;;;;;;18.22;63.69;101743.97;6243088;23;20039;-65
2022/07/23 02:01:50;;;;;;;8.95;4.40;;;;;;;18.20;63.71;101743.41;6243911;23;20043;-65
2022/07/23 02:04:16;;;;;;;5.50;3.95;;;;;;;18.17;63.54;101743.97;6245302;23;20015;-65
2022/07/23 02:06:41;;;;;;;6.30;4.45;;;;;;;18.16;63.70;101739.50;6244630;23;20000;-65
2022/07/23 02:09:06;;;;;;;5.35;4.38;;;;;;;18.14;63.75;101738.91;6244342;23;20019;-65
2022/07/23 02:11:32;;;;;;;5.93;4.38;;;;;;;18.14;63.74;101738.91;6245808;23;20078;-65
2022/07/23 02:13:57;;;;;;;7.93;3.92;;;;;;;18.11;63.64;101736.66;6244265;23;20008;-65
2022/07/23 02:16:22;;;;;;;4.55;4.10;;;;;;;18.09;63.59;101736.13;6245625;23;20010;-65
2022/07/23 02:18:47;;;;;;;5.28;4.78;;;;;;;18.04;63.63;101738.94;6244521;23;20050;-65
2022/07/23 02:21:13;;;;;;;7.10;5.15;;;;;;;18.03;63.79;101737.22;6244846;23;20467;-65
2022/07/23 02:23:38;;;;;;;6.00;4.05;;;;;;;18.00;63.60;101741.47;6246439;23;20011;-65
2022/07/23 02:26:04;;;;;;;6.72;4.20;;;;;;;18.02;63.37;101730.78;6245738;23;20328;-65
2022/07/23 02:28:29;;;;;;;5.43;4.78;;;;;;;18.00;63.74;101734.97;6244327;23;20083;-65
2022/07/23 02:30:54;;;;;;;4.47;4.05;;;;;;;17.99;63.64;101741.72;6246495;23;20011;-65
2022/07/23 02:33:19;;;;;;;6.90;4.40;;;;;;;17.97;63.65;101732.75;6245111;23;20460;-65
2022/07/23 02:35:45;;;;;;;5.53;4.13;;;;;;;17.93;63.59;101734.44;6245639;23;20004;-65
2022/07/23 02:38:10;;;;;;;7.75;4.47;;;;;;;17.89;63.76;101731.34;6243641;23;20380;-65
2022/07/23 02:40:35;;;;;;;7.28;4.60;;;;;;;17.91;63.61;101729.94;6245149;23;20018;-65
2022/07/23 02:43:00;;;;;;;6.70;4.53;;;;;;;17.86;63.86;101726.28;6244549;23;20420;-65
2022/07/23 02:45:26;;;;;;;6.57;4.65;;;;;;;17.84;63.69;101739.75;6244798;23;20027;-65
2022/07/23 02:47:51;;;;;;;7.18;4.70;;;;;;;17.84;63.62;101746.25;6244985;23;20008;-65
2022/07/23 02:50:16;;;;;;;7.00;4.63;;;;;;;17.79;63.59;101746.22;6244799;23;20027;-65
2022/07/23 02:52:42;;;;;;;7.03;4.90;;;;;;;17.79;63.63;101757.44;6244584;23;20035;-65
2022/07/23 02:55:07;;;;;;;6.97;4.97;;;;;;;17.74;63.87;101739.75;6240766;23;20027;-65
2022/07/23 02:57:33;;;;;;;6.97;5.25;;;;;;;17.74;63.91;101754.63;6244394;23;20004;-65
2022/07/23 02:59:58;;;;;;;5.38;4.72;;;;;;;17.69;64.06;101753.78;6244771;23;20122;-65
2022/07/23 03:02:23;;;;;;;8.63;5.05;;;;;;;17.71;63.93;101754.34;6243262;23;20817;-65
2022/07/23 03:04:50;;;;;;;5.82;5.22;;;;;;;17.68;64.15;101752.91;6243446;23;20357;-65
2022/07/23 03:07:16;;;;;;;6.82;4.80;;;;;;;17.65;63.70;101753.50;6244016;23;20325;-65
2022/07/23 03:09:41;;;;;;;5.55;4.95;;;;;;;17.64;64.03;101752.66;6244152;23;20005;-65
2022/07/23 03:12:07;;;;;;;8.63;4.93;;;;;;;17.58;64.08;101752.91;6244541;23;20012;-65
2022/07/23 03:14:32;;;;;;;6.22;5.15;;;;;;;17.58;63.90;101753.75;6244025;23;20031;-65
2022/07/23 03:16:59;;;;;;;6.50;4.53;;;;;;;17.58;64.01;101753.75;6243023;23;20004;-65
2022/07/23 03:19:24;;;;;;;6.63;5.28;;;;;;;17.52;64.23;101757.66;6243076;23;20007;-65
2022/07/23 03:21:50;;;;;;;5.93;5.30;;;;;;;17.57;63.86;101760.50;6245266;23;20079;-65
2022/07/23 03:24:17;;;;;;;7.85;5.25;;;;;;;17.53;63.93;101762.19;6243870;23;20352;-65
2022/07/23 03:26:43;;;;;;;8.93;5.65;;;;;;;17.47;64.20;101763.28;6244807;23;20008;-65
2022/07/23 03:29:08;;;;;;;17.23;6.10;;;;;;;17.52;64.02;101756.81;6244840;23;20014;-65
2022/07/23 03:31:33;;;;;;;6.88;6.18;;;;;;;17.47;64.20;101765.25;6243971;23;20004;-65
2022/07/23 03:33:59;;;;;;;7.32;6.22;;;;;;;17.44;64.03;101758.22;6245140;23;20359;-65
2022/07/23 03:36:25;;;;;;;8.02;6.32;;;;;;;17.45;64.03;101765.53;6245167;23;20011;-65
2022/07/23 03:38:50;;;;;;;9.13;6.30;;;;;;;17.45;64.04;101765.53;6243346;23;20053;-65
2022/07/23 03:41:16;;;;;;;13.52;6.78;;;;;;;17.43;64.28;101762.97;6244647;23;20004;-65
2022/07/23 03:43:41;;;;;;;8.18;6.35;;;;;;;17.39;64.12;101761.84;6244983;23;20118;-65
2022/07/23 03:46:06;;;;;;;7.25;6.53;;;;;;;17.45;64.08;101767.47;6244145;23;20039;-65
2022/07/23 03:48:32;;;;;;;7.68;6.30;;;;;;;17.37;63.87;101768.84;6244760;23;20412;-65
2022/07/23 03:50:57;;;;;;;9.07;6.70;;;;;;;17.34;64.24;101764.66;6245012;23;20094;-65
2022/07/23 03:53:22;;;;;;;7.78;6.97;;;;;;;17.28;64.22;101764.91;6244288;23;20336;-65
2022/07/23 03:55:47;;;;;;;8.23;6.47;;;;;;;17.31;64.33;101762.41;6243573;23;20020;-65
2022/07/23 03:58:13;;;;;;;7.78;6.97;;;;;;;17.29;64.02;101764.66;6245136;23;20008;-65
2022/07/23 04:00:38;;;;;;;7.70;7.00;;;;;;;17.28;64.35;101765.75;6242697;23;20420;-65
2022/07/23 04:03:03;;;;;;;10.95;7.30;;;;;;;17.29;64.48;101770.25;6244502;23;20427;-65
2022/07/23 04:05:29;;;;;;;11.50;7.10;;;;;;;17.20;64.47;101774.69;6244254;23;19997;-65
2022/07/23 04:07:54;;;;;;;7.70;6.93;;;;;;;17.26;64.44;101773.63;6243479;23;20042;-65
2022/07/23 04:10:19;;;;;;;9.07;7.38;;;;;;;17.21;64.41;101773.56;6245655;23;20036;-65
2022/07/23 04:12:45;;;;;;;8.05;7.25;;;;;;;17.21;64.42;101776.38;6243808;23;20456;-66
2022/07/23 04:15:10;;;;;;;10.15;7.50;;;;;;;17.14;64.60;101776.66;6243844;23;20062;-66
2022/07/23 04:17:35;;;;;;;9.45;7.55;;;;;;;17.20;64.31;101777.50;6244469;23;20337;-65
2022/07/23 04:20:01;;;;;;;9.07;7.38;;;;;;;17.23;64.34;101782.56;6243955;23;20043;-65
2022/07/23 04:22:26;;;;;;;10.85;8.00;;;;;;;17.14;65.04;101787.88;6244620;23;20008;-66
2022/07/23 04:24:51;;;;;;;10.68;8.45;;;;;;;17.14;64.85;101785.06;6244900;23;20071;-65
2022/07/23 04:27:17;;;;;;;13.10;8.38;;;;;;;17.17;65.11;101792.06;6244085;23;20008;-65
2022/07/23 04:29:42;;;;;;;12.45;8.95;;;;;;;17.16;65.12;101790.41;6245996;23;20000;-66
2022/07/23 04:32:07;;;;;;;12.43;8.95;;;;;;;17.11;65.18;101787.59;6245801;23;20000;-66
2022/07/23 04:34:33;;;;;;;12.13;9.25;;;;;;;17.11;65.32;101790.38;6246362;23;20024;-65
2022/07/23 04:36:58;;;;;;;10.63;8.30;;;;;;;17.18;64.98;101802.22;6245789;23;20083;-65
2022/07/23 04:39:23;;;;;;;9.82;8.80;;;;;;;17.15;65.04;101795.16;6246843;23;20018;-66
2022/07/23 04:41:49;;;;;;;11.60;8.77;;;;;;;17.14;65.31;101801.91;6245589;23;20424;-65
2022/07/23 04:44:14;;;;;;;9.70;8.70;;;;;;;17.12;65.51;101800.47;6247287;23;20016;-66
2022/07/23 04:46:39;;;;;;;10.57;9.27;;;;;;;17.14;65.47;101801.91;6247172;23;20004;-66
2022/07/23 04:49:05;;;;;;;11.40;9.38;;;;;;;17.12;65.70;101809.75;6244574;23;20079;-66
2022/07/23 04:51:30;;;;;;;10.27;9.15;;;;;;;17.16;65.55;101816.50;6246118;23;20007;-66
2022/07/23 04:53:56;;;;;;;11.45;9.80;;;;;;;17.15;65.73;101812.00;6246471;23;20007;-66
2022/07/23 04:56:21;;;;;;;11.38;9.88;;;;;;;17.15;65.87;101808.34;6245715;23;20324;-65
2022/07/23 04:58:47;;;;;;;10.65;9.57;;;;;;;17.13;65.77;101813.38;6245889;23;20036;-65
2022/07/23 05:01:12;;;;;;;12.02;10.18;;;;;;;17.14;65.68;101806.69;6246208;23;20009;-66
2022/07/23 05:03:37;;;;;;;12.98;9.93;;;;;;;17.18;65.92;101811.47;6246028;23;20010;-66
2022/07/23 05:06:03;;;;;;;12.68;9.40;;;;;;;17.18;65.93;101810.63;6247174;23;20000;-66
2022/07/23 05:08:28;;;;;;;11.05;9.80;;;;;;;17.17;66.09;101811.72;6246829;23;20313;-66
2022/07/23 05:10:54;;;;;;;10.75;9.27;;;;;;;17.22;65.95;101808.94;6246006;23;20011;-66
2022/07/23 05:13:19;;;;;;;13.20;10.25;;;;;;;17.23;66.06;101812.59;6247032;23;20019;-65
2022/07/23 05:15:45;;;;;;;11.70;9.93;;;;;;;17.23;66.40;101812.59;6246908;23;20038;-66
2022/07/23 05:18:11;;;;;;;13.55;9.95;;;;;;;17.26;66.16;101812.91;6245400;23;20056;-65
2022/07/23 05:20:36;;;;;;;11.68;10.48;;;;;;;17.26;66.42;101815.69;6246367;23;20000;-65
2022/07/23 05:23:02;;;;;;;14.55;10.55;;;;;;;17.30;66.40;101814.03;6246030;23;20004;-66
2022/07/23 05:25:27;;;;;;;12.07;10.50;;;;;;;17.33;66.36;101823.84;6245294;23;20027;-66
2022/07/23 05:27:52;;;;;;;12.30;10.98;;;;;;;17.34;66.55;101819.94;6245352;23;20011;-65
2022/07/23 05:30:18;;;;;;;11.65;10.27;;;;;;;17.36;66.49;101824.13;6245298;23;20015;-65
2022/07/23 05:32:43;;;;;;;11.30;9.93;;;;;;;17.40;66.45;101821.63;6245566;23;20004;-65
2022/07/23 05:35:08;;;;;;;14.23;9.95;;;;;;;17.41;66.36;101818.56;6244780;23;20008;-65
2022/07/23 05:37:34;;;;;;;10.60;9.55;;;;;;;17.50;66.09;101821.69;6244343;23;20012;-65
2022/07/23 05:40:03;;;;;;;11.50;10.40;;;;;;;17.53;66.32;101829.56;6245412;23;20091;-65
2022/07/23 05:42:29;;;;;;;11.98;10.07;;;;;;;17.58;66.31;101831.53;6245946;23;20095;-65
2022/07/23 05:44:54;;;;;;;14.40;10.48;;;;;;;17.57;66.44;101829.84;6245602;23;20032;-65
2022/07/23 05:47:19;;;;;;;12.30;10.02;;;;;;;17.61;66.31;101830.97;6244505;23;20374;-65
2022/07/23 05:49:45;;;;;;;10.68;9.57;;;;;;;17.70;66.04;101836.88;6246041;23;20012;-65
2022/07/23 05:52:10;;;;;;;12.07;9.52;;;;;;;17.77;65.82;101832.72;6244611;23;20324;-65
2022/07/23 05:54:35;;;;;;;11.48;9.95;;;;;;;17.81;65.99;101839.47;6244758;23;20111;-65
2022/07/23 05:57:01;;;;;;;12.35;9.95;;;;;;;17.86;65.68;101836.66;6244385;23;20073;-65
2022/07/23 05:59:27;;;;;;;10.50;9.40;;;;;;;17.91;65.49;101850.72;6244945;23;20004;-65
2022/07/23 06:01:52;;;;;;;11.50;9.88;;;;;;;17.98;65.35;101850.44;6246108;23;20321;-65
2022/07/23 06:04:17;;;;;;;10.02;8.73;;;;;;;18.10;65.20;101841.75;6244110;23;19996;-65
2022/07/23 06:06:42;;;;;;;10.68;9.48;;;;;;;18.15;64.91;101859.44;6244732;23;20004;-65
2022/07/23 06:09:08;;;;;;;11.65;9.60;;;;;;;18.23;64.68;101860.00;6245787;23;20004;-65
2022/07/23 06:11:33;;;;;;;10.27;8.88;;;;;;;18.31;64.83;101860.31;6244065;23;20021;-64
2022/07/23 06:13:58;;;;;;;10.32;9.02;;;;;;;18.33;65.55;101865.66;6242033;23;20004;-65
2022/07/23 06:16:24;;;;;;;11.82;9.45;;;;;;;18.42;65.46;101863.97;6243640;23;20038;-65
2022/07/23 06:18:49;;;;;;;9.98;8.23;;;;;;;18.45;64.92;101856.94;6244767;23;20316;-65
2022/07/23 06:21:14;;;;;;;9.45;8.55;;;;;;;18.51;64.41;101858.59;6243832;23;20054;-66
2022/07/23 06:23:39;;;;;;;12.80;9.02;;;;;;;18.58;64.15;101856.34;6245040;23;20008;-65
2022/07/23 06:26:05;;;;;;;9.00;8.10;;;;;;;18.51;64.04;101855.78;6244380;23;20126;-65
2022/07/23 06:28:30;;;;;;;10.73;7.95;;;;;;;18.58;63.73;101857.19;6244057;23;20019;-66
2022/07/23 06:30:55;;;;;;;11.13;8.10;;;;;;;18.63;64.10;101854.41;6245207;23;20420;-66
2022/07/23 06:33:21;;;;;;;10.68;8.18;;;;;;;18.70;63.79;101854.13;6244558;23;20054;-66
2022/07/23 06:35:46;;;;;;;9.60;7.57;;;;;;;18.76;63.43;101858.63;6246027;23;20000;-66
2022/07/23 06:38:12;;;;;;;10.30;7.70;;;;;;;18.84;62.49;101860.84;6244931;23;20008;-65
2022/07/23 06:40:38;;;;;;;10.32;7.72;;;;;;;18.85;62.49;101859.72;6244254;23;20012;-65
2022/07/23 06:43:03;;;;;;;10.75;7.47;;;;;;;18.88;62.61;101849.88;6244697;23;20302;-65
2022/07/23 06:45:28;;;;;;;9.90;7.75;;;;;;;18.93;62.92;101857.47;6245474;23;20048;-66
2022/07/23 06:47:54;;;;;;;8.27;6.80;;;;;;;18.98;61.61;101861.13;6244642;23;20004;-66
2022/07/23 06:50:19;;;;;;;8.98;6.63;;;;;;;19.06;61.54;101859.66;6244600;23;20004;-66
2022/07/23 06:52:45;;;;;;;8.20;6.60;;;;;;;19.11;61.35;101856.84;6245368;23;20352;-66
2022/07/23 06:55:12;;;;;;;9.85;7.10;;;;;;;19.14;61.69;101864.72;6242512;23;20012;-65
2022/07/23 06:57:38;;;;;;;7.18;6.57;;;;;;;19.21;61.08;101865.25;6243573;23;20103;-65
2022/07/23 07:00:04;;;;;;;9.55;6.50;;;;;;;19.22;61.08;101857.66;6244723;23;20035;-65
2022/07/23 07:02:29;;;;;;;6.85;5.95;;;;;;;19.27;60.85;101854.84;6242943;23;20369;-66
2022/07/23 07:04:56;;;;;;;10.70;6.40;;;;;;;19.33;60.82;101862.09;6244163;23;20023;-67
2022/07/23 07:07:21;;;;;;;7.72;5.60;;;;;;;19.35;60.15;101857.03;6243319;23;20034;-66
2022/07/23 07:09:46;;;;;;;7.30;5.18;;;;;;;19.42;60.32;101863.22;6242074;23;20004;-65
2022/07/23 07:12:11;;;;;;;6.35;4.55;;;;;;;19.51;59.83;101866.25;6243775;23;20004;-66
2022/07/23 07:14:37;;;;;;;6.88;5.25;;;;;;;19.53;59.32;101862.03;6244715;23;20031;-67
2022/07/23 07:17:02;;;;;;;7.20;5.40;;;;;;;19.59;59.13;101855.22;6242140;23;20011;-67
2022/07/23 07:19:27;;;;;;;10.15;5.22;;;;;;;19.61;59.40;101853.00;6244023;23;20035;-66
2022/07/23 07:21:53;;;;;;;6.57;4.75;;;;;;;19.66;59.25;101854.13;6243812;23;20015;-67
2022/07/23 07:24:18;;;;;;;7.53;4.25;;;;;;;19.70;58.66;101855.22;6243667;23;20012;-65
2022/07/23 07:26:43;;;;;;;7.07;4.45;;;;;;;19.77;58.53;101865.03;6242006;23;20344;-65
2022/07/23 07:29:09;;;;;;;7.50;4.47;;;;;;;19.71;58.31;101869.00;6242789;23;20004;-65
2022/07/23 07:31:34;;;;;;;8.80;4.72;;;;;;;19.82;58.70;101870.63;6244350;23;20302;-65
2022/07/23 07:33:59;;;;;;;5.82;4.28;;;;;;;19.83;58.57;101871.47;6244557;23;20008;-65
2022/07/23 07:36:24;;;;;;;7.47;5.30;;;;;;;19.80;58.10;101878.53;6244983;23;20026;-66
2022/07/23 07:38:50;;;;;;;4.80;4.30;;;;;;;19.84;58.37;101881.59;6241889;23;20004;-67
2022/07/23 07:41:16;;;;;;;5.70;4.38;;;;;;;19.91;58.49;101872.84;6242804;23;20004;-67
2022/07/23 07:43:41;;;;;;;7.20;4.82;;;;;;;19.94;58.55;101870.28;6242741;23;20015;-66
2022/07/23 07:46:09;;;;;;;9.27;4.78;;;;;;;20.00;57.96;101871.94;6244207;23;20018;-67
2022/07/23 07:48:36;;;;;;;5.20;4.43;;;;;;;20.05;57.57;101871.06;6243464;23;20103;-66
2022/07/23 07:51:01;;;;;;;9.77;5.00;;;;;;;20.12;56.80;101868.72;6242396;23;20091;-65
2022/07/23 07:53:27;;;;;;;6.53;5.22;;;;;;;20.18;56.80;101866.72;6244127;23;20031;-64
2022/07/23 07:55:52;;;;;;;7.50;4.55;;;;;;;20.21;56.36;101866.16;6241488;23;20012;-64
2022/07/23 07:58:17;;;;;;;5.45;4.43;;;;;;;20.29;56.53;101872.00;6241550;23;20012;-64
2022/07/23 08:00:43;;;;;;;8.10;3.75;;;;;;;20.37;56.22;101866.88;6242338;23;20000;-65
2022/07/23 08:03:08;;;;;;;7.85;4.85;;;;;;;20.42;55.57;101873.31;6243475;23;20416;-66
2022/07/23 08:05:33;;;;;;;6.53;4.72;;;;;;;20.47;55.53;101873.25;6243217;23;20087;-64
2022/07/23 08:07:59;;;;;;;6.55;4.13;;;;;;;20.53;55.41;101876.91;6243908;23;20008;-67
2022/07/23 08:10:25;;;;;;;7.93;4.07;;;;;;;20.52;53.90;101876.06;6242059;23;20004;-68
2022/07/23 08:12:53;;;;;;;7.57;4.28;;;;;;;20.56;54.56;101877.16;6239800;23;20074;-68
2022/07/23 08:15:20;;;;;;;6.50;4.65;;;;;;;20.66;55.34;101878.19;6243388;23;20000;-68
2022/07/23 08:17:48;;;;;;;7.50;4.28;;;;;;;20.69;54.87;101883.25;6242475;23;20053;-67
2022/07/23 08:20:17;;;;;;;7.47;4.10;;;;;;;20.79;54.06;101888.81;6243055;23;20016;-67
2022/07/23 08:22:50;;;;;;;5.88;3.65;;;;;;;20.90;53.99;101884.72;6243783;23;20036;-66
2022/07/23 08:25:19;;;;;;;3.25;2.95;;;;;;;20.98;56.25;101892.53;6243686;23;20004;-64
2022/07/23 08:27:44;;;;;;;4.90;4.28;;;;;;;21.02;55.07;101898.44;6241478;23;20008;-63
2022/07/23 08:30:10;;;;;;;6.53;3.83;;;;;;;21.07;56.19;101896.41;6243071;23;20058;-64
2022/07/23 08:32:56;;;;;;;5.47;3.40;;;;;;;21.13;56.54;101897.19;6244174;23;20480;-63
2022/07/23 08:35:30;;;;;;;5.60;3.00;;;;;;;21.24;57.06;101901.59;6243512;23;20082;-63
2022/07/23 08:37:56;;;;;;;3.65;3.30;;;;;;;21.26;56.24;101898.44;6243238;23;20008;-64
2022/07/23 08:40:23;;;;;;;3.75;3.08;;;;;;;21.33;55.42;101899.81;6241740;23;20428;-64
2022/07/23 08:42:50;;;;;;;3.75;3.00;;;;;;;21.39;55.15;101894.13;6241133;23;20015;-63
2022/07/23 08:45:20;;;;;;;7.28;3.78;;;;;;;21.43;55.14;101903.66;6241629;23;20000;-59
2022/07/23 08:47:49;;;;;;;8.77;3.95;;;;;;;21.46;54.78;101915.22;6240315;23;20003;-59
2022/07/23 08:50:14;;;;;;;7.03;3.22;;;;;;;21.57;54.96;101910.25;6243332;23;20005;-63
2022/07/23 08:52:40;;;;;;;7.35;2.80;;;;;;;21.63;54.70;101909.06;6241715;23;20004;-64
2022/07/23 08:55:06;;;;;;;6.75;3.67;;;;;;;21.66;54.07;101908.47;6240899;23;20113;-64
2022/07/23 08:57:32;;;;;;;6.05;3.40;;;;;;;21.67;54.15;101910.13;6242623;23;20058;-64
2022/07/23 08:59:58;;;;;;;5.78;4.30;;;;;;;21.65;53.86;101908.75;6241706;23;20012;-63
2022/07/23 09:02:23;;;;;;;4.82;3.30;;;;;;;21.68;53.85;101911.81;6242616;23;20011;-63
2022/07/23 09:04:48;;;;;;;4.45;3.13;;;;;;;21.78;54.27;101903.22;6243717;23;20008;-63
2022/07/23 09:07:13;;;;;;;6.43;3.63;;;;;;;21.77;53.14;101900.66;6241717;23;20320;-64
2022/07/23 09:09:39;;;;;;;5.35;3.40;;;;;;;21.83;52.50;101892.97;6242029;23;20075;-64
2022/07/23 09:12:09;;;;;;;4.85;4.10;;;;;;;21.86;52.91;101907.34;6243510;23;20011;-66
2022/07/23 09:14:46;;;;;;;3.60;3.28;;;;;;;21.90;52.76;101904.75;6243876;23;19996;-66
2022/07/23 09:17:18;;;;;;;4.20;2.85;;;;;;;21.99;53.39;101894.44;6243824;23;20032;-65
2022/07/23 09:19:44;;;;;;;4.82;2.83;;;;;;;22.08;53.27;101895.41;6244720;23;20000;-65
2022/07/23 09:22:26;;;;;;;4.78;3.25;;;;;;;22.11;52.98;101891.97;6244010;23;20015;-64
2022/07/23 09:25:14;;;;;;;4.53;2.95;;;;;;;22.16;53.55;101885.44;6243096;23;20000;-64
2022/07/23 09:27:55;;;;;;;4.35;3.67;;;;;;;22.13;52.92;101884.09;6245354;23;20411;-64
2022/07/23 09:30:29;;;;;;;4.90;3.40;;;;;;;22.12;52.33;101887.16;6244569;23;20001;-63
2022/07/23 09:33:04;;;;;;;5.95;3.40;;;;;;;22.20;52.93;101893.00;6245577;23;20000;-64
2022/07/23 09:35:53;;;;;;;4.57;3.03;;;;;;;22.20;52.54;101898.66;6243051;23;20008;-64
2022/07/23 09:38:23;;;;;;;3.40;2.20;;;;;;;22.21;52.21;101897.53;6243614;23;20438;-64
2022/07/23 09:41:08;;;;;;;3.78;2.33;;;;;;;22.29;52.95;101905.31;6246098;23;20349;-64
2022/07/23 09:43:33;;;;;;;5.88;2.78;;;;;;;22.28;51.71;101906.47;6243162;23;20447;-64
2022/07/23 09:46:21;;;;;;;3.47;2.53;;;;;;;22.35;52.42;101905.22;6244375;23;20004;-64
2022/07/23 09:48:47;;;;;;;7.00;3.75;;;;;;;22.26;51.66;101907.91;6244435;23;20004;-62
2022/07/23 09:51:15;;;;;;;5.60;3.47;;;;;;;22.29;52.15;101905.31;6242894;23;20019;-62
2022/07/23 09:53:41;;;;;;;2.67;2.42;;;;;;;22.44;51.89;101897.72;6241400;23;20371;-64
2022/07/23 09:56:07;;;;;;;4.55;2.47;;;;;;;22.47;52.13;101909.25;6243084;23;20040;-63
2022/07/23 09:58:34;;;;;;;4.65;3.25;;;;;;;22.52;52.01;101905.53;6243200;23;20448;-64
2022/07/23 10:00:59;;;;;;;5.05;2.80;;;;;;;22.51;51.18;101906.66;6244290;23;20393;-65
2022/07/23 10:03:25;;;;;;;3.60;2.50;;;;;;;22.61;51.20;101906.50;6244181;23;20039;-64
2022/07/23 10:05:51;;;;;;;5.45;3.60;;;;;;;22.56;50.48;101909.41;6241068;23;20075;-63
2022/07/23 10:08:18;;;;;;;4.97;3.05;;;;;;;22.51;50.64;101910.31;6243650;23;20034;-64
2022/07/23 10:10:46;;;;;;;4.22;3.20;;;;;;;22.54;51.53;101901.22;6245627;23;20035;-64
2022/07/23 10:15:56;;;;;;;3.30;2.10;;;;;;;22.65;50.47;101903.88;6242064;23;20023;-65
2022/07/23 10:18:22;;;;;;;3.42;2.40;;;;;;;22.66;49.23;101903.56;6244593;23;20004;-64
2022/07/23 10:20:49;;;;;;;2.80;1.90;;;;;;;22.75;49.85;101907.38;6243559;23;20083;-63
2022/07/23 10:23:32;;;;;;;4.28;3.63;;;;;;;22.70;49.37;101901.78;6243563;23;20053;-63
2022/07/23 10:26:12;;;;;;;4.95;2.65;;;;;;;22.77;49.36;101902.25;6243438;22;20004;-63
2022/07/23 10:28:54;;;;;;;2.22;2.03;;;;;;;22.83;49.45;101900.16;6242995;23;20019;-64
2022/07/23 10:31:45;;;;;;;4.15;2.10;;;;;;;22.90;49.68;101905.41;6244353;23;20028;-64
2022/07/23 10:34:44;;;;;;;2.85;2.55;;;;;;;22.92;49.16;101908.81;6243116;23;20008;-65
2022/07/23 10:37:23;;;;;;;4.43;2.17;;;;;;;23.01;49.48;101916.28;6243094;23;20491;-65
2022/07/23 10:40:09;;;;;;;2.65;1.70;;;;;;;23.10;49.63;101910.72;6242567;23;20057;-64
2022/07/23 10:42:35;;;;;;;5.22;2.78;;;;;;;23.07;48.38;101900.03;6244567;23;20448;-64
2022/07/23 10:45:01;;;;;;;4.78;2.40;;;;;;;23.16;49.50;101909.47;6243584;23;20008;-62
2022/07/23 10:47:41;;;;;;;5.03;2.35;;;;;;;23.20;49.99;101906.88;6242888;23;20103;-62
2022/07/23 10:50:34;;;;;;;4.03;2.20;;;;;;;23.29;49.73;101896.47;6243700;23;20720;-61
2022/07/23 10:53:09;;;;;;;3.40;2.00;;;;;;;23.32;48.35;101903.50;6243095;23;20000;-61
2022/07/23 10:55:34;;;;;;;3.88;2.08;;;;;;;23.34;48.07;101895.53;6242344;23;20452;-62
2022/07/23 10:58:01;;;;;;;3.00;1.90;;;;;;;23.41;48.21;101895.94;6241319;23;20103;-64
2022/07/23 11:00:31;;;;;;;4.05;2.38;;;;;;;23.38;48.61;101899.41;6243881;23;20431;-64
2022/07/23 11:02:59;;;;;;;3.75;1.80;;;;;;;23.38;47.98;101902.25;6244653;23;20004;-66
2022/07/23 11:05:26;;;;;;;4.20;2.60;;;;;;;23.44;48.34;101907.50;6243104;23;20425;-67
2022/07/23 11:08:04;;;;;;;3.42;2.08;;;;;;;23.49;48.76;101900.88;6240261;23;20023;-66
2022/07/23 11:10:40;;;;;;;2.97;2.05;;;;;;;23.52;48.66;101892.59;6245027;23;20027;-66
2022/07/23 11:13:24;;;;;;;4.13;2.40;;;;;;;23.53;48.67;101896.25;6242558;23;20004;-63
2022/07/23 11:16:01;;;;;;;2.95;2.50;;;;;;;23.49;47.78;101892.38;6241916;23;20008;-66
2022/07/23 11:18:44;;;;;;;5.00;2.40;;;;;;;23.54;48.24;101889.47;6243560;23;20012;-66
2022/07/23 11:21:29;;;;;;;3.15;2.22;;;;;;;23.57;49.02;101885.97;6243539;23;20008;-66
2022/07/23 11:23:57;;;;;;;2.78;1.80;;;;;;;23.60;47.83;101888.19;6242813;23;20004;-66
2022/07/23 11:26:43;;;;;;;3.47;1.80;;;;;;;23.61;48.24;101889.84;6243328;23;20462;-66